Latest Weather Observations for Cape Otway

IDV60801

Issued at 10:32 pm EST Wednesday 20 September 2017 (issued every 30 minutes, with the page automatically refreshed every 10 minutes)

About weather observations | Map of weather stations | Latest weather observations for VIC | Other Formats
Station Details ID: 090015 Name: CAPE OTWAY LIGHTHOUSE Lat: -38.86 Lon: 143.51 Height: 82.0 m
Data from the previous 72 hours. | See also: Recent months at Cape Otway
Date/Time
EST
Temp
°C
App
Temp
°C
Dew
Point
°C
Rel
Hum
%
Delta-T
°C
Wind Press
QNH
hPa
Press
MSL
hPa
Rain since
9am
mm
Dir  Spd
km/h
Gust
km/h
Spd
kts
Gust
kts
20/10:30pm 14.8 11.5 6.4 57 4.1 N 13 24 7 13 1013.2 1013.3 0.0
20/10:00pm 15.1 10.5 6.7 57 4.1 N 20 30 11 16 1013.1 1013.2 0.0
20/09:30pm 15.2 11.3 7.3 59 3.9 NNE 17 26 9 14 1013.6 1013.7 0.0
20/09:00pm 14.6 10.4 7.6 63 3.5 N 19 30 10 16 1014.3 1014.4 0.0
20/08:30pm 13.9 10.9 7.9 67 3.0 NW 13 20 7 11 1014.7 1014.8 0.0
20/08:00pm 13.7 11.2 8.3 70 2.7 W 11 15 6 8 1014.7 1014.8 0.0
20/07:30pm 12.7 11.1 7.8 72 2.4 NNW 6 11 3 6 1014.2 1014.3 0.0
20/07:00pm 13.8 11.0 8.4 70 2.7 N 13 20 7 11 1013.3 1013.4 0.0
20/06:30pm 13.8 11.8 8.6 71 2.6 NW 9 15 5 8 1013.9 1014.0 0.0
20/06:00pm 13.4 11.9 9.1 75 2.2 WNW 7 15 4 8 1014.2 1014.3 0.0
20/05:30pm 13.2 11.8 8.9 75 2.2 ENE 6 7 3 4 1014.0 1014.1 0.0
20/05:00pm 13.7 12.3 9.0 73 2.4 SW 6 11 3 6 1014.0 1014.1 0.0
20/04:30pm 13.4 11.8 8.7 73 2.4 E 7 11 4 6 1014.1 1014.2 0.0
20/04:00pm 13.9 12.0 8.9 72 2.5 SE 9 9 5 5 1014.6 1014.7 0.0
20/03:30pm 14.7 13.5 9.5 71 2.7 SSE 6 9 3 5 1014.6 1014.7 0.0
20/03:00pm 14.3 12.4 8.9 70 2.7 SE 9 11 5 6 1014.6 1014.7 0.0
20/02:30pm 14.2 11.1 8.8 70 2.7 E 15 20 8 11 1013.9 1014.0 0.0
20/02:00pm 16.8 14.1 7.2 53 4.8 NE 11 19 6 10 1014.8 1014.9 0.0
20/01:30pm 17.2 13.2 6.7 50 5.2 NW 17 28 9 15 1015.6 1015.6 0.0
20/01:00pm 16.9 12.9 6.7 51 5.0 WNW 17 32 9 17 1016.2 1016.2 0.0
20/12:30pm 17.1 13.6 7.2 52 5.0 N 15 24 8 13 1016.1 1016.1 0.0
20/12:00pm 16.3 12.5 7.5 56 4.4 NW 17 30 9 16 1016.5 1016.5 0.0
20/11:30am 14.4 9.0 6.5 59 3.8 WNW 24 39 13 21 1017.3 1017.3 0.0
20/11:00am 13.8 8.9 6.7 62 3.4 NW 22 35 12 19 1018.0 1018.0 0.0
20/10:30am 13.1 8.2 6.7 65 3.1 WNW 22 33 12 18 1018.3 1018.3 0.0
20/10:00am 12.7 7.7 6.5 66 3.0 NW 22 33 12 18 1019.3 1019.3 0.0
20/09:30am 11.9 8.6 6.2 68 2.7 NW 13 22 7 12 1019.6 1019.6 0.0
20/09:00am 11.4 8.9 6.5 72 2.3 WNW 9 17 5 9 1020.1 1020.1 0.0
20/08:30am 10.2 6.9 6.2 76 1.9 N 13 19 7 10 1019.2 1019.2 0.0
20/08:00am 9.2 6.2 5.9 80 1.5 NNE 11 15 6 8 1019.0 1019.0 0.0
20/07:30am 9.0 6.4 6.1 82 1.3 N 9 11 5 6 1019.9 1019.9 0.0
20/07:00am 7.6 4.4 4.9 83 1.2 N 11 13 6 7 1019.4 1019.4 0.0
20/06:30am 7.2 3.5 4.5 83 1.2 NNW 13 17 7 9 1019.5 1019.5 0.0
20/06:00am 7.5 3.9 4.8 83 1.2 N 13 17 7 9 1019.3 1019.3 0.0
20/05:30am 7.2 2.8 4.5 83 1.2 NNW 17 20 9 11 1019.3 1019.3 0.0
20/05:00am 7.2 2.7 4.3 82 1.3 NNW 17 22 9 12 1019.6 1019.6 0.0
20/04:30am 7.3 2.8 4.4 82 1.3 NNW 17 20 9 11 1019.5 1019.5 0.0
20/04:00am 7.5 3.0 4.3 80 1.4 NNW 17 22 9 12 1019.3 1019.3 0.0
20/03:30am 7.8 3.3 4.4 79 1.5 NNW 17 20 9 11 1019.5 1019.5 0.0
20/03:00am 8.3 3.9 4.5 77 1.7 NNW 17 20 9 11 1019.6 1019.6 0.0
20/02:30am 8.5 4.1 4.5 76 1.8 NNW 17 19 9 10 1019.8 1019.8 0.0
20/02:00am 8.9 5.2 4.7 75 1.9 NNW 13 17 7 9 1020.0 1020.0 0.0
20/01:30am 9.6 6.1 5.4 75 1.9 NNW 13 17 7 9 1020.4 1020.4 0.0
20/01:00am 9.7 6.2 5.3 74 2.0 NNW 13 17 7 9 1020.6 1020.6 0.0
20/12:30am 9.5 5.9 5.1 74 2.0 NNW 13 17 7 9 1020.6 1020.6 0.0
20/12:00am 10.0 6.8 5.2 72 2.2 NNW 11 15 6 8 1020.8 1020.8 0.0
 
Date/Time
EST
Temp
°C
App
Temp
°C
Dew
Point
°C
Rel
Hum
%
Delta-T
°C
Wind Press
QNH
hPa
Press
MSL
hPa
Rain since
9am
mm
Dir  Spd
km/h
Gust
km/h
Spd
kts
Gust
kts
19/11:30pm 10.9 6.3 5.7 70 2.4 W 19 26 10 14 1021.1 1021.1 0.0
19/11:00pm 10.8 6.6 5.8 71 2.3 WNW 17 28 9 15 1021.4 1021.5 0.0
19/10:30pm 10.9 5.1 6.1 72 2.2 W 26 35 14 19 1021.7 1021.8 0.0
19/10:00pm 11.2 6.5 5.9 70 2.5 WSW 20 30 11 16 1021.7 1021.8 0.0
19/09:30pm 11.0 6.3 6.0 71 2.3 WSW 20 30 11 16 1021.8 1021.9 0.0
19/09:00pm 10.3 4.0 5.9 74 2.0 W 28 43 15 23 1021.8 1021.9 0.0
19/08:30pm 10.4 5.8 6.4 76 1.9 W 20 32 11 17 1021.6 1021.7 0.0
19/08:00pm 10.6 4.8 6.4 75 2.0 WSW 26 37 14 20 1021.5 1021.6 0.0
19/07:30pm 10.5 5.8 6.1 74 2.1 W 20 28 11 15 1021.5 1021.6 0.0
19/07:00pm 10.1 5.3 5.7 74 2.0 WNW 20 28 11 15 1021.4 1021.5 0.0
19/06:30pm 10.8 4.4 5.1 68 2.6 W 28 39 15 21 1021.2 1021.2 0.0
19/06:00pm 10.9 5.0 5.7 70 2.4 W 26 37 14 20 1020.9 1020.9 0.0
19/05:30pm 10.9 4.8 5.0 67 2.7 W 26 37 14 20 1020.8 1020.8 0.0
19/05:00pm 11.2 4.3 4.7 64 2.9 W 30 41 16 22 1020.6 1020.6 0.0
19/04:30pm 11.3 5.2 5.0 65 2.9 W 26 39 14 21 1020.3 1020.3 0.0
19/04:00pm 11.2 4.9 5.7 69 2.5 WSW 28 41 15 22 1020.2 1020.2 0.0
19/03:30pm 11.8 5.3 4.5 61 3.3 W 28 39 15 21 1020.1 1020.1 0.0
19/03:00pm 11.9 5.1 4.9 62 3.2 W 30 41 16 22 1020.3 1020.3 0.0
19/02:30pm 11.0 3.8 4.9 66 2.8 WSW 32 46 17 25 1020.2 1020.2 0.0
19/02:00pm 11.2 4.2 6.1 71 2.4 WSW 32 48 17 26 1020.1 1020.1 0.0
19/01:46pm 11.4 5.1 5.7 68 2.7 WSW 28 46 15 25 1020.0 1020.0 0.0
19/01:30pm 10.8 3.7 5.3 69 2.5 WSW 32 46 17 25 1020.0 1020.0 0.0
19/01:23pm 11.1 4.7 5.0 66 2.8 WSW 28 46 15 25 1019.9 1019.9 0.0
19/01:00pm 11.9 5.4 4.9 62 3.2 WSW 28 39 15 21 1019.9 1019.9 0.0
19/12:30pm 10.6 4.2 5.2 69 2.5 W 28 43 15 23 1020.0 1020.0 0.0
19/12:00pm 10.9 5.0 5.7 70 2.4 WSW 26 33 14 18 1019.7 1019.7 0.0
19/11:30am 11.4 4.0 4.2 61 3.2 WSW 32 41 17 22 1019.5 1019.5 0.0
19/11:00am 11.0 3.6 4.2 63 3.0 WSW 32 43 17 23 1019.3 1019.3 0.0
19/10:34am 9.9 1.7 4.7 70 2.3 SW 37 56 20 30 1019.4 1019.4 0.0
19/10:30am 9.3 -0.2 4.1 70 2.3 SW 43 56 23 30 1019.3 1019.3 0.0
19/10:00am 10.7 2.1 4.4 65 2.8 SW 39 59 21 32 1019.0 1019.0 0.0
19/09:56am 11.2 2.9 4.0 61 3.2 WSW 37 56 20 30 1018.9 1018.9 0.0
19/09:30am 10.6 1.1 4.1 64 2.9 SW 43 57 23 31 1018.7 1018.7 0.0
19/09:05am 10.4 1.4 4.3 66 2.7 SW 41 59 22 32 1018.3 1018.3 0.0
19/09:00am 10.4 1.8 4.5 67 2.6 SW 39 50 21 27 1018.2 1018.2 4.2
19/08:47am 9.8 1.4 3.8 66 2.6 WSW 37 56 20 30 1018.2 1018.2 4.2
19/08:30am 10.2 0.6 4.6 68 2.5 SW 44 59 24 32 1017.9 1017.9 4.2
19/08:10am 10.3 1.9 3.6 63 2.9 WSW 37 61 20 33 1017.5 1017.5 4.2
19/08:00am 10.0 2.6 4.2 67 2.6 WSW 32 43 17 23 1017.4 1017.4 4.2
19/07:34am 9.6 -0.5 3.8 67 2.5 SW 46 70 25 38 1016.9 1016.9 4.2
19/07:30am 10.2 0.3 4.6 68 2.5 SW 46 57 25 31 1016.9 1016.9 4.2
19/07:00am 9.5 -0.9 4.3 70 2.3 SW 48 67 26 36 1016.4 1016.4 4.2
19/06:30am 10.0 0.9 4.0 66 2.7 WSW 41 61 22 33 1015.9 1015.9 4.2
19/06:00am 9.5 -0.1 4.3 70 2.3 WSW 44 65 24 35 1015.3 1015.3 4.2
19/05:30am 8.5 -1.2 4.1 74 1.9 WSW 44 76 24 41 1014.7 1014.8 4.2
19/05:09am 9.6 0.2 4.6 71 2.2 SW 43 63 23 34 1014.1 1014.2 3.8
19/05:00am 9.7 -0.1 5.1 73 2.1 SW 46 61 25 33 1014.0 1014.1 3.8
19/04:30am 9.5 -0.4 4.9 73 2.1 WSW 46 76 25 41 1013.5 1013.6 3.8
19/04:00am 10.2 0.3 4.6 68 2.5 WSW 46 65 25 35 1012.9 1013.0 3.6
19/03:30am 10.1 1.3 5.7 74 2.0 WSW 41 65 22 35 1012.5 1012.6 3.6
19/03:00am 10.0 0.6 5.2 72 2.2 WSW 44 72 24 39 1012.0 1012.1 3.6
19/02:30am 10.3 1.3 6.6 78 1.7 WSW 43 61 23 33 1011.9 1012.0 3.6
19/02:00am 8.5 -0.9 5.6 82 1.3 WSW 44 67 24 36 1011.8 1011.9 3.4
19/01:30am 9.2 -0.5 5.9 80 1.5 W 46 67 25 36 1011.6 1011.7 2.8
19/01:00am 9.5 -1.1 5.3 75 1.9 W 50 72 27 39 1011.2 1011.3 1.8
19/12:30am 10.8 1.1 5.8 71 2.3 W 46 67 25 36 1010.6 1010.6 1.6
19/12:00am 11.3 0.9 6.0 70 2.5 W 50 67 27 36 1010.1 1010.1 1.6
 
Date/Time
EST
Temp
°C
App
Temp
°C
Dew
Point
°C
Rel
Hum
%
Delta-T
°C
Wind Press
QNH
hPa
Press
MSL
hPa
Rain since
9am
mm
Dir  Spd
km/h
Gust
km/h
Spd
kts
Gust
kts
18/11:30pm 10.8 0.8 7.7 81 1.5 W 50 70 27 38 1009.9 1009.9 1.6
18/11:00pm 11.0 -0.6 6.7 75 2.0 W 57 76 31 41 1009.3 1009.3 1.4
18/10:30pm 11.5 -0.4 7.2 75 2.1 W 59 85 32 46 1008.8 1008.8 1.4
18/10:00pm 11.4 1.0 7.7 78 1.8 WNW 52 78 28 42 1008.4 1008.4 1.4
18/09:30pm 10.5 0.8 5.9 73 2.1 NW 46 76 25 41 1007.9 1007.9 1.2
18/09:00pm 10.8 2.2 4.9 67 2.7 NW 39 63 21 34 1007.7 1007.7 1.2
18/08:30pm 11.3 2.9 3.8 60 3.3 NW 37 59 20 32 1007.7 1007.7 1.2
18/08:20pm 11.5 3.2 4.3 61 3.3 NW 37 70 20 38 1007.9 1007.9 1.2
18/08:00pm 11.6 4.5 5.5 66 2.8 NW 32 50 17 27 1007.9 1007.9 1.2
18/07:32pm 11.5 4.8 5.6 67 2.7 NW 30 48 16 26 1008.0 1008.0 1.2
18/07:30pm 11.6 4.9 5.7 67 2.8 NW 30 44 16 24 1007.9 1007.9 1.2
18/07:00pm 11.8 5.7 6.5 70 2.5 NW 28 46 15 25 1007.4 1007.4 1.2
18/06:58pm 11.8 5.7 6.5 70 2.5 NW 28 46 15 25 1007.4 1007.4 1.2
18/06:30pm 12.1 7.1 8.0 76 2.0 NW 24 39 13 21 1007.4 1007.4 1.2
18/06:00pm 12.4 6.7 8.5 77 1.9 NW 28 48 15 26 1007.2 1007.2 1.2
18/05:41pm 12.2 6.4 8.1 76 2.0 NNW 28 54 15 29 1007.1 1007.1 1.2
18/05:30pm 12.5 7.1 8.2 75 2.1 NNW 26 44 14 24 1007.0 1007.0 1.2
18/05:00pm 13.0 7.2 8.1 72 2.4 NNW 28 46 15 25 1006.4 1006.4 1.2
18/04:30pm 13.1 7.4 8.2 72 2.4 NNW 28 48 15 26 1006.2 1006.2 1.2
18/04:24pm 13.1 7.4 8.2 72 2.4 NNW 28 48 15 26 1006.1 1006.1 1.2
18/04:00pm 13.0 7.2 8.1 72 2.4 NNW 28 43 15 23 1006.2 1006.2 1.2
18/03:30pm 13.0 6.8 7.7 70 2.6 NNW 30 43 16 23 1006.3 1006.3 1.2
18/03:00pm 13.3 7.5 8.0 70 2.6 N 28 54 15 29 1006.5 1006.5 1.2
18/02:42pm 13.0 7.2 7.9 71 2.5 NNW 28 54 15 29 1006.6 1006.6 1.2
18/02:30pm 13.1 7.8 8.4 73 2.3 N 26 46 14 25 1006.6 1006.6 1.2
18/02:00pm 11.7 4.4 7.0 73 2.3 NNW 35 54 19 29 1007.2 1007.2 1.2
18/01:30pm 11.8 5.7 6.7 71 2.4 NNW 28 46 15 25 1007.1 1007.1 0.6
18/01:22pm 12.1 6.0 6.6 69 2.6 NNW 28 46 15 25 1007.4 1007.4 0.4
18/01:00pm 13.8 8.7 6.2 60 3.7 NNW 22 41 12 22 1007.6 1007.6 0.0
18/12:30pm 13.8 8.4 6.2 60 3.6 NW 24 37 13 20 1007.6 1007.6 0.0
18/12:00pm 15.3 7.2 3.5 45 5.4 NNW 35 61 19 33 1007.4 1007.4 0.0
18/11:30am 17.7 9.2 0.8 32 7.5 NNW 35 59 19 32 1006.7 1006.7 0.0
18/11:00am 16.5 7.5 0.2 33 7.1 N 37 59 20 32 1006.3 1006.3 0.0
18/10:30am 17.0 7.2 -0.2 31 7.4 N 41 72 22 39 1006.9 1006.9 0.0
18/10:00am 17.4 7.1 -0.8 29 7.8 N 43 67 23 36 1007.0 1007.0 0.0
18/09:30am 17.1 6.5 -1.5 28 7.8 N 44 70 24 38 1007.3 1007.3 0.0
18/09:00am 16.7 5.3 -1.9 28 7.7 N 48 76 26 41 1007.9 1007.9 0.0
18/08:30am 16.4 5.3 -2.6 27 7.7 N 46 69 25 37 1007.7 1007.7 0.0
18/08:00am 15.6 4.6 -2.3 29 7.3 N 46 80 25 43 1007.7 1007.7 0.0
18/07:30am 15.3 4.7 -3.1 28 7.3 N 43 70 23 38 1007.9 1007.9 0.0
18/07:00am 15.3 3.7 -3.6 27 7.5 N 48 76 26 41 1007.8 1007.8 0.0
18/06:30am 15.3 3.7 -3.6 27 7.4 N 48 78 26 42 1007.5 1007.5 0.0
18/06:00am 14.6 2.7 -3.2 29 7.0 N 50 87 27 47 1008.3 1008.3 0.0
18/05:30am 14.8 2.9 -3.0 29 7.1 N 50 78 27 42 1008.7 1008.7 0.0
18/05:00am 14.1 3.0 -2.8 31 6.7 N 46 78 25 42 1009.3 1009.3 0.0
18/04:30am 14.3 2.1 -2.6 31 6.7 N 52 80 28 43 1009.3 1009.3 0.0
18/04:00am 14.5 3.1 -2.4 31 6.8 N 48 72 26 39 1009.4 1009.4 0.0
18/03:30am 14.7 3.3 -2.2 31 6.8 N 48 74 26 40 1009.9 1009.9 0.0
18/03:00am 14.3 3.7 -1.7 33 6.5 N 44 69 24 37 1010.5 1010.5 0.0
18/02:30am 14.7 3.3 -1.8 32 6.7 N 48 74 26 40 1010.9 1010.9 0.0
18/02:00am 14.6 3.7 -1.5 33 6.6 N 46 72 25 39 1011.5 1011.6 0.0
18/01:30am 14.4 3.9 -0.8 35 6.3 N 44 65 24 35 1012.3 1012.4 0.0
18/01:00am 14.7 4.4 -1.0 34 6.5 N 43 69 23 37 1012.6 1012.7 0.0
18/12:30am 14.5 4.3 -0.4 36 6.2 N 43 65 23 35 1013.1 1013.2 0.0
18/12:00am 14.3 4.0 0.2 38 6.0 N 44 69 24 37 1013.6 1013.7 0.0
 
Date/Time
EST
Temp
°C
App
Temp
°C
Dew
Point
°C
Rel
Hum
%
Delta-T
°C
Wind Press
QNH
hPa
Press
MSL
hPa
Rain since
9am
mm
Dir  Spd
km/h
Gust
km/h
Spd
kts
Gust
kts
17/11:30pm 14.3 4.2 0.6 39 5.8 N 43 69 23 37 1014.0 1014.1 0.0
17/11:00pm 14.5 4.4 0.4 38 6.0 N 43 67 23 36 1014.4 1014.5 0.0

Other Formats:

Comma delimited format used in spreadsheet applications
http://www.bom.gov.au/fwo/IDV60801/IDV60801.94842.axf

JavaScript Object Notation format (JSON) in row-major order
http://www.bom.gov.au/fwo/IDV60801/IDV60801.94842.json